Terminal Aerodrome Forecast
Issued by NWS

Home | Current Version | Previous Version | Text Only | Print | Product List | Glossary On
Versions: 1 2 3 4 5 6 7 8 9 10 11 12 13 14
000
FTAK31 PANC 221727
TAFADQ
TAF
PADQ 221727Z 2218/2318 28008KT P6SM SCT050 SCT090
     FM230600 12010KT P6SM BKN040 OVC080
     FM231100 11015KT 5SM -SN BKN015 OVC030
      TEMPO 2311/2315 2SM -SN BKN009
     FM231600 12012KT P6SM BKN035=

USA.gov is the U.S. government's official web portal to all federal, state and local government web resources and services.